Time;durP1;ratioP1;P1;durP2;ratioP2;P2;SDS_P1;SDS_P2;PMS_P1;PMS_P2;Temp;Humidity;BMP_temperature;BMP_pressure;BME280_temperature;BME280_humidity;BME280_pressure;Samples;Min_cycle;Max_cycle;Signal;HPM_P1;HPM_P2
2021/12/30 00:01:30;;;;;;;317.33;47.70;;;2.70;99.90;;;;;;5103588;28;20278;-82
2021/12/30 00:03:58;;;;;;;292.77;47.63;;;2.60;99.90;;;;;;5114939;28;20198;-82
2021/12/30 00:06:25;;;;;;;342.23;48.43;;;2.60;99.90;;;;;;5115067;28;20545;-82
2021/12/30 00:08:54;;;;;;;357.67;52.57;;;2.60;99.90;;;;;;5115645;28;20239;-82
2021/12/30 00:11:24;;;;;;;328.83;51.13;;;2.60;99.90;;;;;;5107787;28;20546;-82
2021/12/30 00:13:52;;;;;;;330.37;52.43;;;2.60;99.90;;;;;;5094572;28;20187;-82
2021/12/30 00:16:20;;;;;;;317.33;47.40;;;2.50;99.90;;;;;;5094529;28;20206;-82
2021/12/30 00:18:49;;;;;;;256.47;43.37;;;2.60;99.90;;;;;;5094737;28;20219;-82
2021/12/30 00:21:16;;;;;;;282.73;45.03;;;2.60;99.90;;;;;;5094578;28;20192;-82
2021/12/30 00:23:43;;;;;;;278.80;43.03;;;2.60;99.90;;;;;;5094603;28;20195;-82
2021/12/30 00:26:11;;;;;;;298.80;44.87;;;2.50;99.90;;;;;;5094228;28;20680;-82
2021/12/30 00:28:38;;;;;;;271.00;43.97;;;2.50;99.90;;;;;;5094538;28;20203;-81
2021/12/30 00:31:05;;;;;;;253.73;43.37;;;2.50;99.90;;;;;;5110665;28;20186;-82
2021/12/30 00:33:34;;;;;;;265.90;42.30;;;2.50;99.90;;;;;;5114574;28;20708;-82
2021/12/30 00:36:03;;;;;;;257.87;41.87;;;2.50;99.90;;;;;;5114791;28;20207;-82
2021/12/30 00:38:30;;;;;;;263.63;40.27;;;2.50;99.90;;;;;;5104554;28;20302;-82
2021/12/30 00:40:57;;;;;;;288.73;43.83;;;2.50;99.90;;;;;;5094029;28;20175;-82
2021/12/30 00:43:24;;;;;;;270.90;39.90;;;2.50;99.90;;;;;;5094593;28;20192;-82
2021/12/30 00:45:51;;;;;;;288.23;47.17;;;2.50;99.90;;;;;;5094095;28;20271;-82
2021/12/30 00:48:21;;;;;;;254.00;39.13;;;2.50;99.90;;;;;;5101408;28;20259;-82
2021/12/30 00:50:50;;;;;;;214.20;38.60;;;2.50;99.90;;;;;;5114125;28;20731;-82
2021/12/30 00:53:17;;;;;;;239.90;37.50;;;2.50;99.90;;;;;;5114089;28;20641;-82
2021/12/30 00:55:44;;;;;;;263.93;40.27;;;2.50;99.90;;;;;;5114023;28;20194;-81
2021/12/30 00:58:12;;;;;;;206.43;37.33;;;2.50;99.90;;;;;;5093939;28;20191;-82
2021/12/30 01:00:43;;;;;;;298.03;67.27;;;2.50;99.90;;;;;;5093607;28;20608;-82
2021/12/30 01:03:11;;;;;;;285.23;49.50;;;2.60;99.90;;;;;;5093542;28;20183;-82
2021/12/30 01:05:38;;;;;;;271.20;41.47;;;2.60;99.90;;;;;;5093432;28;20264;-83
2021/12/30 01:08:08;;;;;;;254.93;37.60;;;2.60;99.90;;;;;;5112186;28;20236;-81
2021/12/30 01:10:36;;;;;;;237.30;37.43;;;2.60;99.90;;;;;;5113841;28;20199;-84
2021/12/30 01:13:06;;;;;;;218.23;38.43;;;2.60;99.90;;;;;;5113742;28;20727;-84
2021/12/30 01:15:46;;;;;;;267.23;39.40;;;2.70;99.90;;;;;;5109087;28;20187;-82
2021/12/30 01:18:28;;;;;;;264.30;39.80;;;2.70;99.90;;;;;;5114089;28;20179;-82
2021/12/30 01:20:55;;;;;;;209.23;36.33;;;2.70;99.90;;;;;;5114232;28;20232;-83
2021/12/30 01:23:24;;;;;;;214.23;37.27;;;2.70;99.90;;;;;;5113849;28;20218;-84
2021/12/30 01:25:51;;;;;;;207.97;34.37;;;2.70;99.90;;;;;;5109432;28;20206;-83
2021/12/30 01:28:18;;;;;;;234.40;36.47;;;2.70;99.90;;;;;;5113481;28;20601;-84
2021/12/30 01:30:46;;;;;;;201.33;34.00;;;2.70;99.90;;;;;;5113379;28;20240;-82
2021/12/30 01:33:13;;;;;;;232.23;33.70;;;2.70;99.90;;;;;;5113676;28;20191;-81
2021/12/30 01:35:40;;;;;;;190.67;32.67;;;2.70;99.90;;;;;;5102630;28;20190;-84
2021/12/30 01:38:11;;;;;;;229.97;37.00;;;2.70;99.90;;;;;;5093006;28;20196;-83
2021/12/30 01:40:41;;;;;;;244.30;36.73;;;2.70;99.90;;;;;;5092925;28;20675;-82
2021/12/30 01:43:10;;;;;;;248.43;35.03;;;2.80;99.90;;;;;;5096290;28;20175;-82
2021/12/30 01:45:38;;;;;;;204.27;32.87;;;2.80;99.90;;;;;;5113016;28;20316;-85
2021/12/30 01:48:05;;;;;;;214.73;32.40;;;2.80;99.90;;;;;;5113599;28;20243;-84
2021/12/30 01:50:33;;;;;;;201.70;33.13;;;2.80;99.90;;;;;;5113003;28;20195;-84
2021/12/30 01:53:00;;;;;;;240.87;31.17;;;2.80;99.90;;;;;;5097077;28;20720;-82
2021/12/30 01:55:27;;;;;;;194.50;28.77;;;2.80;99.90;;;;;;5093199;28;20195;-82
2021/12/30 01:57:55;;;;;;;223.33;30.07;;;2.80;99.90;;;;;;5092604;28;20217;-82
2021/12/30 02:00:26;;;;;;;198.87;26.20;;;2.80;99.90;;;;;;5092942;28;20195;-82
2021/12/30 02:02:53;;;;;;;220.77;28.10;;;2.80;99.90;;;;;;5106631;28;20197;-82
2021/12/30 02:05:21;;;;;;;193.57;26.50;;;2.90;99.90;;;;;;5112748;28;20214;-82
2021/12/30 02:07:49;;;;;;;216.63;26.27;;;2.90;99.90;;;;;;5112748;28;20554;-81
2021/12/30 02:10:16;;;;;;;177.90;26.40;;;2.90;99.90;;;;;;5106814;28;20236;-82
2021/12/30 02:12:46;;;;;;;188.10;25.23;;;2.90;99.90;;;;;;5092813;28;20256;-81
2021/12/30 02:15:18;;;;;;;177.20;24.90;;;2.90;99.90;;;;;;5092691;28;20196;-82
2021/12/30 02:17:48;;;;;;;196.37;25.50;;;2.90;99.90;;;;;;5092358;28;20521;-81
2021/12/30 02:20:44;;;;;;;193.47;24.47;;;3.00;99.90;;;;;;5093812;28;20176;-83
2021/12/30 02:23:13;;;;;;;204.07;25.53;;;3.00;99.90;;;;;;5092320;28;20225;-83
2021/12/30 02:25:40;;;;;;;216.27;23.23;;;3.00;99.90;;;;;;5092147;28;20214;-81
2021/12/30 02:28:09;;;;;;;208.23;23.40;;;3.00;99.90;;;;;;5092778;28;20195;-82
2021/12/30 02:30:37;;;;;;;222.83;24.67;;;3.00;99.90;;;;;;5112517;28;20198;-84
2021/12/30 02:33:04;;;;;;;182.07;23.63;;;3.00;99.90;;;;;;5111591;28;20243;-82
2021/12/30 02:35:33;;;;;;;246.70;26.17;;;3.00;99.90;;;;;;5112761;28;20198;-81
2021/12/30 02:38:01;;;;;;;178.57;22.37;;;3.10;99.90;;;;;;5112732;28;20239;-82
2021/12/30 02:40:32;;;;;;;224.10;24.07;;;3.10;99.90;;;;;;5071360;28;20663;-81
2021/12/30 02:42:59;;;;;;;161.00;23.90;;;3.00;99.90;;;;;;5071066;28;20188;-81
2021/12/30 02:45:26;;;;;;;186.70;23.57;;;3.00;99.90;;;;;;5071949;28;20746;-82
2021/12/30 02:47:53;;;;;;;154.00;21.73;;;3.00;99.90;;;;;;5072150;28;20248;-82
2021/12/30 02:50:20;;;;;;;187.33;21.83;;;3.00;99.90;;;;;;5071147;28;20653;-81
2021/12/30 02:52:48;;;;;;;187.37;22.07;;;3.00;99.90;;;;;;5071942;28;20598;-82
2021/12/30 02:55:16;;;;;;;130.57;18.10;;;3.00;99.90;;;;;;5072158;28;20242;-82
2021/12/30 02:57:43;;;;;;;165.23;19.60;;;3.00;99.90;;;;;;5071821;28;20644;-81
2021/12/30 03:00:11;;;;;;;160.40;19.00;;;3.00;99.90;;;;;;5054919;28;20595;-81
2021/12/30 03:02:39;;;;;;;147.53;18.63;;;3.00;99.90;;;;;;5051992;28;20250;-84
2021/12/30 03:05:09;;;;;;;196.13;20.27;;;3.00;99.90;;;;;;5055061;28;20197;-81
2021/12/30 03:07:36;;;;;;;140.53;18.03;;;3.00;99.90;;;;;;5055911;28;20192;-81
2021/12/30 03:10:06;;;;;;;153.60;17.30;;;3.00;99.90;;;;;;5070548;28;20660;-81
2021/12/30 03:12:33;;;;;;;152.97;17.47;;;3.00;99.90;;;;;;5076011;28;20192;-82
2021/12/30 03:15:00;;;;;;;146.13;17.87;;;3.00;99.90;;;;;;5075883;28;20196;-82
2021/12/30 03:17:27;;;;;;;120.17;15.43;;;3.00;99.90;;;;;;5075438;28;20200;-82
2021/12/30 03:19:56;;;;;;;151.60;17.03;;;3.00;99.90;;;;;;5061662;28;20203;-82
2021/12/30 03:22:23;;;;;;;150.47;17.30;;;3.10;99.90;;;;;;5055481;28;20192;-82
2021/12/30 03:24:50;;;;;;;156.63;16.67;;;3.10;99.90;;;;;;5055307;28;20196;-82
2021/12/30 03:27:19;;;;;;;140.67;15.73;;;3.10;99.90;;;;;;5055171;28;20218;-82
2021/12/30 03:29:46;;;;;;;135.10;16.50;;;3.10;99.90;;;;;;5067018;28;20188;-82
2021/12/30 03:32:13;;;;;;;143.23;17.20;;;3.20;99.90;;;;;;5075052;28;20719;-82
2021/12/30 03:34:40;;;;;;;94.53;15.50;;;3.20;99.90;;;;;;5075508;28;20188;-82
2021/12/30 03:37:07;;;;;;;126.03;15.40;;;3.20;99.90;;;;;;5075267;28;20328;-81
2021/12/30 03:39:34;;;;;;;102.47;14.57;;;3.20;99.90;;;;;;5091108;28;20273;-82
2021/12/30 03:42:01;;;;;;;110.33;14.23;;;3.20;99.90;;;;;;5095892;28;20187;-82
2021/12/30 03:44:29;;;;;;;119.07;13.80;;;3.20;99.90;;;;;;5095155;28;20192;-82
2021/12/30 03:46:56;;;;;;;151.10;20.07;;;3.20;99.90;;;;;;5096958;28;20272;-82
2021/12/30 03:49:23;;;;;;;161.83;22.33;;;3.20;99.90;;;;;;5115798;28;20190;-82
2021/12/30 03:51:53;;;;;;;155.63;19.23;;;3.30;99.90;;;;;;5115320;28;20700;-82
2021/12/30 03:54:20;;;;;;;137.87;13.97;;;3.20;99.90;;;;;;5115647;28;20248;-82
2021/12/30 03:56:47;;;;;;;139.77;22.00;;;3.30;99.90;;;;;;5114754;28;20202;-82
2021/12/30 03:59:14;;;;;;;192.17;29.17;;;3.30;99.90;;;;;;5099484;28;20690;-82
2021/12/30 04:01:43;;;;;;;170.37;25.50;;;3.30;99.90;;;;;;5115467;28;20217;-82
2021/12/30 04:04:10;;;;;;;151.60;23.53;;;3.30;99.90;;;;;;5115111;28;20217;-82
2021/12/30 04:06:37;;;;;;;236.87;44.43;;;3.30;99.90;;;;;;5115356;28;20250;-82
2021/12/30 04:09:06;;;;;;;237.33;37.80;;;3.30;99.90;;;;;;5096009;28;20237;-82
2021/12/30 04:11:35;;;;;;;221.73;34.13;;;3.30;99.90;;;;;;5095351;28;20191;-82
2021/12/30 04:14:03;;;;;;;168.80;25.47;;;3.40;99.90;;;;;;5094185;28;20195;-82
2021/12/30 04:16:30;;;;;;;203.20;34.07;;;3.30;99.90;;;;;;5094887;28;20198;-82
2021/12/30 04:18:58;;;;;;;180.37;32.90;;;3.40;99.90;;;;;;5094828;28;20707;-82
2021/12/30 04:21:25;;;;;;;234.03;47.47;;;3.40;99.90;;;;;;5094489;28;20602;-82
2021/12/30 04:23:52;;;;;;;217.43;37.63;;;3.40;99.90;;;;;;5094635;28;20191;-82
2021/12/30 04:26:20;;;;;;;234.20;34.87;;;3.40;99.90;;;;;;5094218;28;20706;-82
2021/12/30 04:28:47;;;;;;;227.43;40.67;;;3.40;99.90;;;;;;5109908;28;20190;-82
2021/12/30 04:31:14;;;;;;;196.60;35.50;;;3.40;99.90;;;;;;5114931;28;20240;-82
2021/12/30 04:33:42;;;;;;;213.40;33.17;;;3.40;99.90;;;;;;5114919;28;20263;-82
2021/12/30 04:36:11;;;;;;;188.93;28.13;;;3.40;99.90;;;;;;5115089;28;20190;-82
2021/12/30 04:38:39;;;;;;;170.93;29.43;;;3.40;99.90;;;;;;5114130;28;20214;-82
2021/12/30 04:41:06;;;;;;;168.87;23.60;;;3.40;99.90;;;;;;5114670;28;20175;-82
2021/12/30 04:43:34;;;;;;;149.17;21.20;;;3.40;99.90;;;;;;5114791;28;20202;-82
2021/12/30 04:46:03;;;;;;;162.33;22.13;;;3.40;99.90;;;;;;5114642;28;20216;-82
2021/12/30 04:48:30;;;;;;;152.27;21.40;;;3.40;99.90;;;;;;5112303;28;20244;-82
2021/12/30 04:50:57;;;;;;;164.47;20.00;;;3.40;99.90;;;;;;5114160;28;20194;-82
2021/12/30 04:53:26;;;;;;;186.00;19.57;;;3.40;99.90;;;;;;5114321;28;20255;-82
2021/12/30 04:55:53;;;;;;;148.73;18.80;;;3.40;99.90;;;;;;5113781;28;20240;-82
2021/12/30 04:58:20;;;;;;;190.93;22.83;;;3.40;99.90;;;;;;5114538;28;20537;-82
2021/12/30 05:00:47;;;;;;;196.03;22.40;;;3.30;99.90;;;;;;5114445;28;20191;-82
2021/12/30 05:03:15;;;;;;;189.20;21.30;;;3.30;99.90;;;;;;5113973;28;20194;-82
2021/12/30 05:05:44;;;;;;;117.00;15.77;;;3.30;99.90;;;;;;5110810;28;20199;-82
2021/12/30 05:08:12;;;;;;;109.47;16.10;;;3.30;99.90;;;;;;5094047;28;20183;-82
2021/12/30 05:10:40;;;;;;;114.93;16.20;;;3.30;99.90;;;;;;5107276;28;20197;-82
2021/12/30 05:13:09;;;;;;;81.03;15.10;;;3.30;99.90;;;;;;5114253;28;20272;-82
2021/12/30 05:15:37;;;;;;;103.93;16.07;;;3.30;99.90;;;;;;5113391;28;20227;-83
2021/12/30 05:18:04;;;;;;;94.43;15.63;;;3.30;99.90;;;;;;5114017;28;20187;-84
2021/12/30 05:20:32;;;;;;;111.17;21.47;;;3.30;99.90;;;;;;5113690;28;20546;-84
2021/12/30 05:22:59;;;;;;;126.43;22.97;;;3.30;99.90;;;;;;5113629;28;20194;-84
2021/12/30 05:25:27;;;;;;;111.37;27.20;;;3.30;99.90;;;;;;5110831;28;20226;-84
2021/12/30 05:27:56;;;;;;;120.00;29.97;;;3.30;99.90;;;;;;5092509;28;20257;-83
2021/12/30 05:30:23;;;;;;;132.97;28.77;;;3.30;99.90;;;;;;5093450;28;20249;-82
2021/12/30 05:32:53;;;;;;;183.33;34.20;;;3.30;99.90;;;;;;5093429;28;20195;-84
2021/12/30 05:35:20;;;;;;;119.07;24.83;;;3.30;99.90;;;;;;5093769;28;20248;-82
2021/12/30 05:37:48;;;;;;;107.77;21.23;;;3.30;99.90;;;;;;5113308;28;20198;-84
2021/12/30 05:40:17;;;;;;;105.27;23.27;;;3.30;99.90;;;;;;5113173;28;20226;-83
2021/12/30 05:42:45;;;;;;;101.90;16.40;;;3.30;99.90;;;;;;5113915;28;20251;-84
2021/12/30 05:45:17;;;;;;;116.33;17.23;;;3.30;99.90;;;;;;5108221;28;20639;-82
2021/12/30 05:47:46;;;;;;;103.53;16.47;;;3.30;99.90;;;;;;5113883;28;20237;-83
2021/12/30 05:50:15;;;;;;;87.10;17.60;;;3.30;99.90;;;;;;5113736;28;20225;-82
2021/12/30 05:52:42;;;;;;;98.87;16.43;;;3.30;99.90;;;;;;5113761;28;20191;-83
2021/12/30 05:55:11;;;;;;;68.87;15.73;;;3.30;99.90;;;;;;5101076;28;20186;-81
2021/12/30 05:57:39;;;;;;;77.10;14.90;;;3.30;99.90;;;;;;5092708;28;20714;-82
2021/12/30 06:00:08;;;;;;;91.50;17.50;;;3.30;99.90;;;;;;5092547;28;20252;-81
2021/12/30 06:02:36;;;;;;;86.93;16.27;;;3.30;99.90;;;;;;5093064;28;20237;-81
2021/12/30 06:05:04;;;;;;;99.30;19.13;;;3.30;99.90;;;;;;5092795;28;20256;-84
2021/12/30 06:07:31;;;;;;;101.50;20.07;;;3.20;99.90;;;;;;5092761;28;20264;-83
2021/12/30 06:09:58;;;;;;;119.83;19.23;;;3.20;99.90;;;;;;5092449;28;20195;-82
2021/12/30 06:12:25;;;;;;;107.37;23.77;;;3.20;99.90;;;;;;5094687;28;20644;-82
2021/12/30 06:14:53;;;;;;;141.90;27.03;;;3.20;99.90;;;;;;5112446;28;20220;-82
2021/12/30 06:17:19;;;;;;;141.30;22.97;;;3.20;99.90;;;;;;5113072;28;20194;-82
2021/12/30 06:19:48;;;;;;;121.77;24.30;;;3.20;99.90;;;;;;5112488;28;20240;-82
2021/12/30 06:22:15;;;;;;;122.27;24.53;;;3.20;99.90;;;;;;5111620;28;20655;-82
2021/12/30 06:24:43;;;;;;;111.67;21.43;;;3.20;99.90;;;;;;5092716;28;20221;-82
2021/12/30 06:27:10;;;;;;;90.60;16.20;;;3.20;99.90;;;;;;5092202;28;20207;-82
2021/12/30 06:29:37;;;;;;;112.73;16.07;;;3.20;99.90;;;;;;5110715;28;20456;-82
2021/12/30 06:32:05;;;;;;;73.30;13.80;;;3.20;99.90;;;;;;5112092;28;20550;-82
2021/12/30 06:34:32;;;;;;;98.63;23.67;;;3.10;99.90;;;;;;5092647;28;20187;-81
2021/12/30 06:37:00;;;;;;;80.30;12.70;;;3.20;99.90;;;;;;5092501;28;20252;-82
2021/12/30 06:39:27;;;;;;;74.20;15.67;;;3.20;99.90;;;;;;5096617;28;20705;-81
2021/12/30 06:41:54;;;;;;;106.60;17.10;;;3.20;99.90;;;;;;5096378;28;20215;-81
2021/12/30 06:44:21;;;;;;;89.37;13.47;;;3.20;99.90;;;;;;5113761;28;20194;-81
2021/12/30 06:46:57;;;;;;;81.03;14.20;;;3.20;99.90;;;;;;5119157;28;20214;-81
2021/12/30 06:49:25;;;;;;;71.37;11.43;;;3.20;99.90;;;;;;5125585;28;20213;-80
2021/12/30 06:51:52;;;;;;;80.13;12.30;;;3.20;99.90;;;;;;5115965;28;20646;-81
2021/12/30 06:54:20;;;;;;;84.23;13.10;;;3.20;99.90;;;;;;5114582;28;20247;-81
2021/12/30 06:56:48;;;;;;;98.73;14.63;;;3.20;99.90;;;;;;5116096;28;20589;-82
2021/12/30 06:59:15;;;;;;;110.53;15.67;;;3.10;99.90;;;;;;5115645;28;20293;-80
2021/12/30 07:01:42;;;;;;;83.60;13.60;;;3.20;99.90;;;;;;5115539;28;20193;-80
2021/12/30 07:04:17;;;;;;;104.27;14.80;;;3.20;99.90;;;;;;5117983;28;20742;-81
2021/12/30 07:06:44;;;;;;;90.33;15.10;;;3.20;99.90;;;;;;5115891;28;20535;-81
2021/12/30 07:09:11;;;;;;;140.20;21.70;;;3.20;99.90;;;;;;5118784;28;20194;-80
2021/12/30 07:11:39;;;;;;;136.03;22.87;;;3.20;99.90;;;;;;5113585;28;20704;-80
2021/12/30 07:14:12;;;;;;;108.40;18.70;;;3.20;99.90;;;;;;5115070;28;20195;-83
2021/12/30 07:16:39;;;;;;;113.63;16.10;;;3.20;99.90;;;;;;5119657;28;20186;-80
2021/12/30 07:19:09;;;;;;;110.60;18.23;;;3.20;99.90;;;;;;5119625;28;20186;-83
2021/12/30 07:21:36;;;;;;;150.73;19.37;;;3.30;99.90;;;;;;5117543;28;20244;-81
2021/12/30 07:24:07;;;;;;;126.80;22.87;;;3.30;99.90;;;;;;5124468;28;20224;-81
2021/12/30 07:26:38;;;;;;;118.80;21.40;;;3.30;99.90;;;;;;5123516;28;20647;-78
2021/12/30 07:29:12;;;;;;;127.90;23.30;;;3.30;99.90;;;;;;5126739;28;20563;-81
2021/12/30 07:32:11;;;;;;;133.33;19.77;;;3.30;99.90;;;;;;5106430;28;20191;-78
2021/12/30 07:37:24;;;;;;;125.43;21.00;;;3.40;99.90;;;;;;5098148;28;20226;-83
2021/12/30 07:39:51;;;;;;;151.97;27.53;;;3.40;99.90;;;;;;5105416;28;20215;-80
2021/12/30 07:42:21;;;;;;;175.23;35.37;;;3.40;99.90;;;;;;5124394;28;20249;-79
2021/12/30 07:44:59;;;;;;;174.30;39.13;;;3.40;99.90;;;;;;5124248;28;20619;-82
2021/12/30 07:47:26;;;;;;;285.63;96.37;;;3.50;99.90;;;;;;5131964;28;20580;-81
2021/12/30 07:49:54;;;;;;;219.83;53.67;;;3.50;99.90;;;;;;5122179;28;20188;-81
2021/12/30 07:52:21;;;;;;;240.57;47.83;;;3.50;99.90;;;;;;5113193;28;20201;-84
2021/12/30 07:54:48;;;;;;;235.53;47.30;;;3.50;99.90;;;;;;5112451;28;20195;-82
2021/12/30 07:57:20;;;;;;;255.20;52.70;;;3.50;99.90;;;;;;5125068;28;20202;-82
2021/12/30 07:59:52;;;;;;;238.73;52.03;;;3.60;99.90;;;;;;5132738;28;20202;-77
2021/12/30 08:02:22;;;;;;;292.37;67.83;;;3.60;99.90;;;;;;5128611;28;20189;-82
2021/12/30 08:04:52;;;;;;;189.77;42.73;;;3.60;99.90;;;;;;5133836;28;20194;-80
2021/12/30 08:07:22;;;;;;;129.00;29.97;;;3.60;99.90;;;;;;5132189;28;20218;-83
2021/12/30 08:09:50;;;;;;;144.67;32.37;;;3.60;99.90;;;;;;5121050;28;20183;-82
2021/12/30 08:12:17;;;;;;;164.77;30.70;;;3.60;99.90;;;;;;5111602;28;20570;-81
2021/12/30 08:14:44;;;;;;;161.57;28.33;;;3.60;99.90;;;;;;5121243;28;20187;-81
2021/12/30 08:17:20;;;;;;;204.40;37.47;;;3.60;99.90;;;;;;5120102;28;20190;-80
2021/12/30 08:19:48;;;;;;;254.83;72.97;;;3.60;99.90;;;;;;5118884;28;20194;-79
2021/12/30 08:22:15;;;;;;;223.73;55.30;;;3.60;99.90;;;;;;5108377;28;20192;-81
2021/12/30 08:24:44;;;;;;;206.20;32.20;;;3.70;99.90;;;;;;5113131;28;20256;-79
2021/12/30 08:27:18;;;;;;;342.73;72.50;;;3.70;99.90;;;;;;5113428;28;20215;-82
2021/12/30 08:29:46;;;;;;;343.73;64.00;;;3.70;99.90;;;;;;5112048;28;20181;-80
2021/12/30 08:32:24;;;;;;;379.53;76.27;;;3.70;99.90;;;;;;5131781;28;20200;-82
2021/12/30 08:34:58;;;;;;;539.07;275.63;;;3.70;99.90;;;;;;5131416;28;20251;-79
2021/12/30 08:37:41;;;;;;;296.30;64.50;;;3.80;99.90;;;;;;5118388;28;20226;-83
2021/12/30 08:40:11;;;;;;;257.40;49.77;;;3.80;99.90;;;;;;5120183;28;20569;-81
2021/12/30 08:42:39;;;;;;;257.13;51.57;;;3.80;99.90;;;;;;5112447;28;20549;-81
2021/12/30 08:45:09;;;;;;;287.13;57.87;;;3.90;99.90;;;;;;5113674;28;20189;-80
2021/12/30 08:47:40;;;;;;;309.37;52.23;;;3.90;99.90;;;;;;5114642;28;20617;-85
2021/12/30 08:50:15;;;;;;;253.60;39.33;;;4.00;99.90;;;;;;5117465;28;20571;-81
2021/12/30 08:52:50;;;;;;;275.67;41.17;;;4.00;99.90;;;;;;5110231;28;20256;-81
2021/12/30 08:55:19;;;;;;;203.93;32.47;;;4.00;99.90;;;;;;5117286;28;20194;-79
2021/12/30 08:57:49;;;;;;;204.43;24.77;;;4.10;99.90;;;;;;5115650;28;20197;-81
2021/12/30 09:00:20;;;;;;;200.97;27.27;;;4.10;99.90;;;;;;5114725;28;20586;-85
2021/12/30 09:02:50;;;;;;;287.17;49.77;;;4.10;99.90;;;;;;5109387;28;20193;-80
2021/12/30 09:05:17;;;;;;;252.20;35.23;;;4.20;99.90;;;;;;5117917;28;20630;-80
2021/12/30 09:07:56;;;;;;;276.77;28.80;;;4.30;99.90;;;;;;5119631;28;20668;-81
2021/12/30 09:10:25;;;;;;;233.67;32.07;;;4.30;99.90;;;;;;5119464;28;20708;-80
2021/12/30 09:12:54;;;;;;;312.30;32.63;;;4.40;99.90;;;;;;5114000;28;20202;-81
2021/12/30 09:15:24;;;;;;;289.70;32.20;;;4.40;99.90;;;;;;5120523;28;20247;-82
2021/12/30 09:17:57;;;;;;;301.60;31.93;;;4.50;99.90;;;;;;5126287;28;20207;-80
2021/12/30 09:20:25;;;;;;;289.33;30.40;;;4.60;99.90;;;;;;5118142;28;20206;-82
2021/12/30 09:22:53;;;;;;;297.00;31.93;;;4.60;99.90;;;;;;5116602;28;20258;-80
2021/12/30 09:28:07;;;;;;;281.77;26.20;;;4.80;99.90;;;;;;5120011;28;20213;-82
2021/12/30 09:30:35;;;;;;;272.07;23.33;;;4.80;99.90;;;;;;5117506;28;20288;-81
2021/12/30 09:33:23;;;;;;;313.53;26.00;;;4.90;99.90;;;;;;5121521;28;20224;-82
2021/12/30 09:35:50;;;;;;;311.73;26.70;;;4.90;99.90;;;;;;5118844;28;20179;-81
2021/12/30 09:38:17;;;;;;;344.87;25.77;;;5.00;99.90;;;;;;5117602;28;20232;-80
2021/12/30 09:40:45;;;;;;;340.57;25.63;;;5.00;99.90;;;;;;5116715;28;20601;-82
2021/12/30 09:43:13;;;;;;;369.87;27.47;;;5.10;99.90;;;;;;5118739;28;20187;-84
2021/12/30 09:45:47;;;;;;;371.80;33.40;;;5.10;99.90;;;;;;5117322;28;20191;-80
2021/12/30 09:48:20;;;;;;;424.50;32.63;;;5.10;99.90;;;;;;5102540;28;20190;-83
2021/12/30 09:50:50;;;;;;;351.07;31.03;;;5.20;99.90;;;;;;5115928;28;20183;-85
2021/12/30 09:53:26;;;;;;;389.97;35.93;;;5.20;99.90;;;;;;5118294;28;20265;-81
2021/12/30 09:55:57;;;;;;;376.13;41.60;;;5.30;99.90;;;;;;5120651;28;20187;-83
2021/12/30 09:58:24;;;;;;;395.60;35.90;;;5.40;99.90;;;;;;5110642;28;20668;-80
2021/12/30 10:00:55;;;;;;;350.43;35.87;;;5.40;99.90;;;;;;5112847;28;20232;-80
2021/12/30 10:03:29;;;;;;;420.00;38.65;;;5.50;99.90;;;;;;5116387;28;20182;-82
2021/12/30 10:06:07;;;;;;;419.97;49.97;;;5.50;99.90;;;;;;5120030;28;20182;-85
2021/12/30 10:08:36;;;;;;;302.93;34.00;;;5.50;99.90;;;;;;5117458;28;20022;-82
2021/12/30 10:11:11;;;;;;;431.70;44.43;;;5.60;99.90;;;;;;5115940;28;20237;-79
2021/12/30 10:13:50;;;;;;;269.37;32.33;;;5.60;99.90;;;;;;5120416;28;20193;-83
2021/12/30 10:16:18;;;;;;;463.00;42.23;;;5.80;99.90;;;;;;5119227;28;20227;-82
2021/12/30 10:18:47;;;;;;;483.60;35.50;;;5.90;99.90;;;;;;5107415;28;20225;-81
2021/12/30 10:21:17;;;;;;;395.00;31.27;;;6.00;99.90;;;;;;5097996;28;20196;-85
2021/12/30 10:23:51;;;;;;;432.80;35.77;;;6.10;99.90;;;;;;5102381;28;20226;-83
2021/12/30 10:26:22;;;;;;;329.80;30.30;;;6.20;99.90;;;;;;5098260;28;20206;-82
2021/12/30 10:28:54;;;;;;;280.50;31.20;;;6.30;99.90;;;;;;5106951;28;20218;-82
2021/12/30 10:31:35;;;;;;;318.97;32.03;;;6.40;99.90;;;;;;5107025;28;20191;-82
2021/12/30 10:34:05;;;;;;;171.70;22.53;;;6.40;99.90;;;;;;5103163;28;20206;-81
2021/12/30 10:36:38;;;;;;;433.97;33.13;;;6.50;99.90;;;;;;5119170;28;20244;-83
2021/12/30 12:04:16;;;;;;;82.57;41.40;;;7.60;99.90;;;;;;5105233;28;20310;-80
2021/12/30 12:20:21;;;;;;;39.60;17.50;;;7.20;99.90;;;;;;5098953;28;20582;-81
2021/12/30 12:25:39;;;;;;;100.80;34.43;;;7.20;99.90;;;;;;5029912;28;20579;-78
2021/12/30 12:28:20;;;;;;;89.07;30.57;;;7.20;99.90;;;;;;5038666;28;20206;-79
2021/12/30 12:30:58;;;;;;;160.23;25.00;;;7.20;99.90;;;;;;5045812;28;20184;-82
2021/12/30 12:33:29;;;;;;;150.60;24.27;;;7.20;99.90;;;;;;5037521;28;20212;-78
2021/12/30 12:36:02;;;;;;;195.53;26.93;;;7.20;99.90;;;;;;5032714;28;20193;-78
2021/12/30 12:55:53;;;;;;;281.73;29.10;;;7.00;99.90;;;;;;5014164;28;20195;-78
2021/12/30 12:58:21;;;;;;;274.00;27.10;;;6.90;99.90;;;;;;5028830;28;20654;-78
2021/12/30 13:00:50;;;;;;;278.13;31.33;;;6.80;99.90;;;;;;5033378;28;20191;-78
2021/12/30 13:03:18;;;;;;;270.43;34.50;;;6.80;99.90;;;;;;5033184;28;20244;-80
2021/12/30 13:05:56;;;;;;;351.70;38.77;;;6.80;99.90;;;;;;5033367;28;20195;-79
2021/12/30 13:08:24;;;;;;;351.33;33.63;;;6.80;99.90;;;;;;5032947;28;20574;-78
2021/12/30 13:10:52;;;;;;;362.23;36.70;;;6.80;99.90;;;;;;5032180;28;20241;-79
2021/12/30 13:13:30;;;;;;;368.93;35.90;;;6.70;99.90;;;;;;5033098;28;20245;-80
2021/12/30 13:15:58;;;;;;;327.57;33.90;;;6.70;99.90;;;;;;5032882;28;20254;-83
2021/12/30 13:18:26;;;;;;;257.93;32.97;;;6.70;99.90;;;;;;5033481;28;20206;-84
2021/12/30 13:20:53;;;;;;;360.73;37.07;;;6.70;99.90;;;;;;5032852;28;20603;-81
2021/12/30 13:23:33;;;;;;;438.63;48.93;;;6.80;99.90;;;;;;5032774;28;20242;-82
2021/12/30 13:26:05;;;;;;;334.67;40.83;;;6.80;99.90;;;;;;5033241;28;20690;-81
2021/12/30 13:28:32;;;;;;;281.03;42.87;;;6.80;99.90;;;;;;5033461;28;20216;-80
2021/12/30 13:31:07;;;;;;;318.23;40.73;;;6.80;99.90;;;;;;5032935;28;20247;-80
2021/12/30 13:33:34;;;;;;;311.90;45.83;;;6.80;99.90;;;;;;5032995;28;20191;-80
2021/12/30 13:36:14;;;;;;;311.95;40.05;;;6.90;99.90;;;;;;5033227;28;20249;-80
2021/12/30 13:38:41;;;;;;;237.43;39.33;;;6.90;99.90;;;;;;5032894;28;20209;-81
2021/12/30 13:41:17;;;;;;;424.13;46.67;;;6.90;99.90;;;;;;5032650;28;20194;-80
2021/12/30 13:43:45;;;;;;;252.17;35.57;;;7.00;99.90;;;;;;5033375;28;20543;-82
2021/12/30 13:46:13;;;;;;;278.70;35.43;;;7.00;99.90;;;;;;5032743;28;20622;-78
2021/12/30 13:48:44;;;;;;;343.43;41.03;;;7.00;99.90;;;;;;5031603;28;20634;-81
2021/12/30 13:51:15;;;;;;;324.77;42.27;;;7.00;99.90;;;;;;5030148;28;20250;-80
2021/12/30 13:53:45;;;;;;;301.10;40.50;;;7.00;99.90;;;;;;5032079;28;20202;-80
2021/12/30 13:56:20;;;;;;;276.40;32.77;;;7.00;99.90;;;;;;5030025;28;20195;-80
2021/12/30 13:58:48;;;;;;;163.40;30.03;;;7.00;99.90;;;;;;5029000;28;20195;-85
2021/12/30 14:01:18;;;;;;;464.83;44.70;;;7.00;99.90;;;;;;5031688;28;20196;-82
2021/12/30 14:03:48;;;;;;;261.43;32.47;;;7.00;99.90;;;;;;5031888;28;20185;-85
2021/12/30 14:06:22;;;;;;;384.37;41.77;;;7.00;99.90;;;;;;5031492;28;20180;-80
2021/12/30 14:08:51;;;;;;;286.80;38.33;;;7.00;99.90;;;;;;5030944;28;20727;-79
2021/12/30 14:11:29;;;;;;;339.60;38.83;;;6.90;99.90;;;;;;5031588;28;20228;-79
2021/12/30 14:14:01;;;;;;;330.00;45.87;;;6.90;99.90;;;;;;5032816;28;20192;-79
2021/12/30 14:16:32;;;;;;;393.00;42.60;;;6.90;99.90;;;;;;5032584;28;20180;-78
2021/12/30 14:18:59;;;;;;;351.90;38.70;;;6.80;99.90;;;;;;5032181;28;20202;-79
2021/12/30 14:21:29;;;;;;;329.73;42.43;;;6.80;99.90;;;;;;5032520;28;20262;-78
2021/12/30 14:24:08;;;;;;;348.10;39.80;;;6.80;99.90;;;;;;5032764;28;20226;-78
2021/12/30 14:26:37;;;;;;;387.93;37.67;;;6.80;99.90;;;;;;5032281;28;20658;-79
2021/12/30 14:29:06;;;;;;;285.77;34.17;;;6.70;99.90;;;;;;5031760;28;20755;-79
2021/12/30 14:31:36;;;;;;;332.60;34.57;;;6.70;99.90;;;;;;5032388;28;20226;-79
2021/12/30 14:34:12;;;;;;;357.00;32.57;;;6.70;99.90;;;;;;5032267;28;20302;-78
2021/12/30 14:36:59;;;;;;;283.30;30.57;;;6.70;99.90;;;;;;5033399;28;20632;-81
2021/12/30 14:39:39;;;;;;;351.40;35.23;;;6.70;99.90;;;;;;5032065;28;20188;-79
2021/12/30 14:42:14;;;;;;;475.73;43.43;;;6.70;99.90;;;;;;5032427;28;20185;-78
2021/12/30 14:44:43;;;;;;;474.97;44.40;;;6.70;99.90;;;;;;5033864;28;20180;-79